Time;durP1;ratioP1;P1;durP2;ratioP2;P2;SDS_P1;SDS_P2;PMS_P1;PMS_P2;Temp;Humidity;BMP_temperature;BMP_pressure;BME280_temperature;BME280_humidity;BME280_pressure;Samples;Min_cycle;Max_cycle;Signal;HPM_P1;HPM_P2
2021/06/06 00:00:19;;;;;;;8.88;3.80;;;;;;;16.79;52.60;98836.37;1890045;76;22547;-61
2021/06/06 00:02:56;;;;;;;10.90;3.47;;;;;;;16.77;52.35;98829.42;1870447;76;22165;-59
2021/06/06 00:05:48;;;;;;;11.40;4.30;;;;;;;16.80;52.33;98834.61;1854730;76;28383;-61
2021/06/06 00:08:25;;;;;;;8.48;3.70;;;;;;;16.84;52.37;98833.66;1870687;76;22109;-59
2021/06/06 00:11:09;;;;;;;9.08;3.40;;;;;;;16.83;52.15;98835.41;1889886;76;22546;-59
2021/06/06 00:13:45;;;;;;;9.80;4.28;;;;;;;16.81;52.16;98838.92;1870515;76;22560;-59
2021/06/06 00:16:28;;;;;;;11.05;4.00;;;;;;;16.77;52.21;98833.34;1854735;76;27910;-61
2021/06/06 00:19:04;;;;;;;7.75;3.30;;;;;;;16.76;52.27;98827.69;1870611;76;22157;-60
2021/06/06 00:21:40;;;;;;;8.53;3.15;;;;;;;16.70;52.16;98829.50;1870749;76;22117;-61
2021/06/06 00:24:36;;;;;;;6.92;3.30;;;;;;;16.66;52.08;98825.25;1878943;75;22208;-61
2021/06/06 00:27:23;;;;;;;10.95;3.27;;;;;;;16.56;52.01;98822.78;1830523;77;21283;-61
2021/06/06 00:29:58;;;;;;;10.05;2.80;;;;;;;16.56;51.92;98822.34;1870684;76;20098;-61
2021/06/06 00:32:34;;;;;;;8.25;3.20;;;;;;;16.55;51.87;98821.93;1870619;76;22108;-59
2021/06/06 00:35:12;;;;;;;9.55;3.37;;;;;;;16.57;51.73;98827.98;1854741;76;28419;-60
2021/06/06 00:37:45;;;;;;;7.92;3.20;;;;;;;16.63;51.61;98825.72;1889892;76;22120;-60
2021/06/06 00:40:25;;;;;;;6.33;2.80;;;;;;;16.64;51.45;98822.25;1870755;76;22165;-61
2021/06/06 00:43:00;;;;;;;5.55;2.75;;;;;;;16.63;51.46;98820.06;1889944;76;22135;-59
2021/06/06 00:45:36;;;;;;;7.47;2.87;;;;;;;16.65;51.37;98822.66;1870625;76;22149;-61
2021/06/06 00:48:14;;;;;;;10.18;3.05;;;;;;;16.64;51.53;98816.59;1889891;76;22577;-60
2021/06/06 00:50:55;;;;;;;11.48;3.60;;;;;;;16.66;51.29;98816.12;1889884;76;22236;-61
2021/06/06 00:53:45;;;;;;;6.70;3.22;;;;;;;16.69;51.17;98817.38;1889953;76;22144;-61
2021/06/06 00:56:31;;;;;;;;;;;;;;;16.66;51.03;98812.22;1794309;80;21596;-60
2021/06/06 00:59:07;;;;;;;6.75;2.65;;;;;;;16.75;50.78;98816.86;1870483;76;22143;-60
2021/06/06 01:01:42;;;;;;;11.15;3.62;;;;;;;16.75;50.85;98812.95;1870660;76;22579;-60
2021/06/06 01:04:16;;;;;;;8.35;3.05;;;;;;;16.76;50.82;98813.35;1889909;76;22116;-59
2021/06/06 01:06:53;;;;;;;7.30;2.95;;;;;;;16.75;50.83;98809.89;1870712;76;22141;-59
2021/06/06 01:09:42;;;;;;;10.30;2.60;;;;;;;16.69;50.71;98808.25;1760528;81;21540;-60
2021/06/06 01:12:23;;;;;;;9.25;2.75;;;;;;;16.74;50.57;98810.79;1889923;76;22116;-61
2021/06/06 01:15:02;;;;;;;7.60;2.40;;;;;;;16.73;50.52;98806.45;1870623;76;22145;-60
2021/06/06 01:18:09;;;;;;;7.47;2.58;;;;;;;16.69;50.40;98808.70;1828007;78;21257;-60
2021/06/06 01:21:14;;;;;;;6.97;2.33;;;;;;;16.74;50.41;98800.78;1889889;76;22140;-60
2021/06/06 01:24:23;;;;;;;9.03;2.72;;;;;;;16.70;50.46;98804.75;1862682;75;22197;-61
2021/06/06 01:27:11;;;;;;;5.65;2.47;;;;;;;16.68;50.57;98810.88;1870548;76;22168;-60
2021/06/06 01:30:12;;;;;;;8.20;3.15;;;;;;;16.64;50.71;98803.56;1870635;76;22168;-60
2021/06/06 01:32:52;;;;;;;9.03;3.12;;;;;;;16.59;51.04;98801.47;1889932;76;22526;-59
2021/06/06 01:35:37;;;;;;;9.10;2.72;;;;;;;16.56;51.23;98797.59;1889897;76;22116;-60
2021/06/06 01:38:30;;;;;;;8.78;5.58;;;;;;;16.49;51.21;98802.50;1861369;77;21129;-59
2021/06/06 01:41:12;;;;;;;10.68;5.90;;;;;;;16.50;53.25;98802.45;1835160;77;22209;-60
2021/06/06 01:43:56;;;;;;;9.93;5.92;;;;;;;16.45;54.46;98798.21;1889872;76;22237;-60
2021/06/06 01:46:43;;;;;;;18.32;7.25;;;;;;;16.40;55.06;98802.63;1889896;76;22623;-59
2021/06/06 01:49:31;;;;;;;15.37;6.93;;;;;;;16.29;56.31;98808.01;1791899;80;21200;-59
2021/06/06 01:52:10;;;;;;;20.25;7.33;;;;;;;16.24;57.41;98809.38;1870677;76;22528;-59
2021/06/06 01:54:46;;;;;;;13.20;7.40;;;;;;;16.14;57.77;98807.78;1889885;76;22151;-61
2021/06/06 01:57:33;;;;;;;16.35;8.43;;;;;;;16.03;58.21;98813.14;1861410;77;21125;-60
2021/06/06 02:00:15;;;;;;;11.75;8.38;;;;;;;15.99;58.62;98801.48;1889940;76;20162;-63
2021/06/06 02:02:50;;;;;;;16.23;7.17;;;;;;;15.91;58.93;98807.23;1870500;76;22136;-60
2021/06/06 02:05:31;;;;;;;10.65;6.80;;;;;;;15.86;59.15;98805.14;1889888;76;22320;-60
2021/06/06 02:08:13;;;;;;;15.00;7.08;;;;;;;15.81;59.25;98803.44;1854593;76;27909;-61
2021/06/06 02:11:12;;;;;;;11.22;6.17;;;;;;;15.83;59.52;98801.69;1889885;76;22160;-60
2021/06/06 02:13:52;;;;;;;12.20;5.80;;;;;;;15.80;59.81;98800.88;1889924;76;22112;-59
2021/06/06 02:16:31;;;;;;;13.10;6.05;;;;;;;15.75;59.90;98803.53;1870617;76;22120;-61
2021/06/06 02:19:07;;;;;;;8.75;5.42;;;;;;;15.73;59.92;98801.83;1870639;76;22113;-60
2021/06/06 02:21:42;;;;;;;12.58;6.58;;;;;;;15.71;59.50;98803.14;1854786;76;28302;-58
2021/06/06 02:24:30;;;;;;;10.65;6.35;;;;;;;15.73;59.75;98800.53;1827474;78;21126;-60
2021/06/06 02:27:26;;;;;;;11.88;6.35;;;;;;;15.78;60.11;98796.98;1870482;76;22153;-59
2021/06/06 02:30:27;;;;;;;9.70;5.92;;;;;;;15.75;60.56;98793.12;1889872;76;22261;-62
2021/06/06 02:33:24;;;;;;;9.95;5.12;;;;;;;15.72;60.12;98789.69;1870618;76;22147;-60
2021/06/06 02:36:09;;;;;;;7.87;4.53;;;;;;;15.74;59.52;98795.73;1850827;77;22266;-61
2021/06/06 02:39:07;;;;;;;11.80;6.03;;;;;;;15.72;59.02;98798.38;1797437;79;21269;-60
2021/06/06 02:41:53;;;;;;;12.80;7.33;;;;;;;15.81;59.51;98798.23;1889950;76;22182;-62
2021/06/06 02:44:57;;;;;;;16.87;7.53;;;;;;;15.81;60.11;98792.18;1854720;76;28347;-61
2021/06/06 02:47:38;;;;;;;11.57;5.87;;;;;;;15.86;60.17;98806.44;1870668;76;22869;-61
2021/06/06 02:50:23;;;;;;;15.53;6.45;;;;;;;15.84;59.99;98807.75;1873890;76;27903;-62
2021/06/06 02:53:03;;;;;;;12.98;6.62;;;;;;;15.89;60.20;98800.73;1870670;76;20147;-59
2021/06/06 02:55:51;;;;;;;15.13;7.47;;;;;;;15.90;62.05;98805.50;1869759;76;20097;-60
2021/06/06 02:58:36;;;;;;;10.85;7.75;;;;;;;15.86;63.67;98806.44;1889900;76;22160;-60
2021/06/06 03:01:37;;;;;;;16.62;7.70;;;;;;;15.79;65.61;98814.30;1870651;76;22101;-61
2021/06/06 03:04:20;;;;;;;14.63;7.53;;;;;;;15.75;67.12;98811.34;1870774;76;22116;-61
2021/06/06 03:07:06;;;;;;;13.32;7.08;;;;;;;15.72;68.78;98807.48;1889923;76;22120;-60
2021/06/06 03:09:42;;;;;;;11.45;5.60;;;;;;;15.72;69.29;98815.28;1889929;76;22143;-63
2021/06/06 03:12:19;;;;;;;12.90;6.22;;;;;;;15.71;68.32;98812.24;1870691;76;22127;-61
2021/06/06 03:14:52;;;;;;;12.88;6.60;;;;;;;15.79;67.51;98814.30;1873817;76;27946;-60
2021/06/06 03:17:39;;;;;;;13.35;6.62;;;;;;;15.89;67.47;98810.30;1889974;76;22201;-60
2021/06/06 03:20:24;;;;;;;12.03;7.05;;;;;;;15.91;67.67;98812.44;1889924;76;22577;-61
2021/06/06 03:23:02;;;;;;;12.28;6.40;;;;;;;15.91;67.86;98816.34;1870434;76;22153;-60
2021/06/06 03:25:59;;;;;;;14.43;6.37;;;;;;;15.91;67.28;98826.76;1870462;76;22564;-60
2021/06/06 03:28:42;;;;;;;12.90;6.22;;;;;;;15.94;67.56;98822.81;1889755;76;22205;-60
2021/06/06 03:31:41;;;;;;;14.70;6.78;;;;;;;15.94;67.49;98826.27;1866186;75;27972;-61
2021/06/06 03:34:16;;;;;;;13.13;6.72;;;;;;;16.00;67.07;98822.72;1889909;76;22128;-60
2021/06/06 03:37:05;;;;;;;11.78;5.70;;;;;;;15.97;67.26;98822.31;1791656;80;21150;-61
2021/06/06 03:39:47;;;;;;;12.63;6.22;;;;;;;16.04;67.31;98827.01;1869816;76;22184;-60
2021/06/06 03:42:24;;;;;;;14.83;7.05;;;;;;;16.03;67.40;98831.81;1854633;76;27877;-61
2021/06/06 03:44:59;;;;;;;13.30;6.50;;;;;;;16.09;67.42;98827.81;1870635;76;22121;-61
2021/06/06 03:47:33;;;;;;;11.88;5.50;;;;;;;16.10;67.21;98828.22;1870731;76;22172;-61
2021/06/06 03:50:13;;;;;;;12.55;5.08;;;;;;;16.11;67.04;98830.41;1889903;76;22159;-61
2021/06/06 03:52:49;;;;;;;12.73;4.87;;;;;;;16.11;66.49;98826.05;1870740;76;22217;-61
2021/06/06 03:55:25;;;;;;;9.33;4.42;;;;;;;16.12;65.87;98819.95;1870559;76;22141;-60
2021/06/06 03:58:00;;;;;;;8.63;3.15;;;;;;;16.14;65.58;98818.64;1870667;76;22128;-61
2021/06/06 04:00:43;;;;;;;6.25;2.00;;;;;;;16.17;63.64;98807.73;1870644;76;22113;-61
2021/06/06 04:03:31;;;;;;;5.97;3.45;;;;;;;16.20;62.26;98807.68;1760471;80;21699;-61
2021/06/06 04:06:06;;;;;;;11.20;5.08;;;;;;;16.36;62.89;98794.44;1889929;76;22116;-60
2021/06/06 04:08:41;;;;;;;11.22;6.70;;;;;;;16.43;64.32;98804.73;1854780;76;28290;-60
2021/06/06 04:11:16;;;;;;;10.68;5.70;;;;;;;16.56;65.40;98798.03;1870636;76;22113;-58
2021/06/06 04:14:11;;;;;;;10.70;5.75;;;;;;;16.66;66.19;98801.80;1868802;75;22207;-58
2021/06/06 04:16:45;;;;;;;11.05;6.15;;;;;;;16.71;65.92;98803.00;1870651;76;22113;-61
2021/06/06 04:19:20;;;;;;;11.35;5.85;;;;;;;16.81;65.91;98802.44;1870671;76;22117;-60
2021/06/06 04:21:54;;;;;;;4.90;2.45;;;;;;;16.95;66.42;98806.13;1890053;76;22131;-60
2021/06/06 04:24:30;;;;;;;5.55;2.00;;;;;;;17.04;62.05;98813.32;1890025;76;22173;-61
2021/06/06 04:27:06;;;;;;;6.35;1.70;;;;;;;17.17;58.76;98818.33;1854565;76;27923;-62
2021/06/06 04:29:41;;;;;;;4.47;1.77;;;;;;;17.33;56.48;98818.48;1854730;76;27895;-61
2021/06/06 04:32:18;;;;;;;4.95;1.82;;;;;;;17.48;55.52;98810.81;1889899;76;22245;-61
2021/06/06 04:34:53;;;;;;;7.05;2.40;;;;;;;17.60;55.33;98815.77;1873859;76;27881;-60
2021/06/06 04:37:28;;;;;;;8.38;4.47;;;;;;;17.74;54.85;98819.42;1870640;76;22205;-61
2021/06/06 04:40:05;;;;;;;10.58;4.30;;;;;;;17.83;58.60;98817.94;1873928;76;27897;-61
2021/06/06 04:42:42;;;;;;;7.80;3.85;;;;;;;17.90;58.57;98819.53;1870446;76;22189;-60
2021/06/06 04:45:18;;;;;;;6.42;3.12;;;;;;;17.98;59.33;98818.91;1870481;76;22168;-61
2021/06/06 04:47:53;;;;;;;6.08;3.17;;;;;;;18.05;57.67;98825.33;1889966;76;22171;-61
2021/06/06 04:50:29;;;;;;;12.95;5.47;;;;;;;18.11;56.62;98820.81;1873871;76;28923;-61
2021/06/06 04:53:16;;;;;;;12.03;4.33;;;;;;;18.15;59.15;98822.94;1791757;80;21142;-60
2021/06/06 04:55:52;;;;;;;6.55;3.60;;;;;;;18.17;58.37;98820.70;1870565;76;22164;-61
2021/06/06 04:58:29;;;;;;;10.98;3.87;;;;;;;18.17;58.01;98821.16;1870661;76;22189;-61
2021/06/06 05:01:03;;;;;;;9.63;2.52;;;;;;;18.20;59.11;98820.63;1870877;76;20102;-60
2021/06/06 05:03:38;;;;;;;7.78;2.60;;;;;;;18.20;56.12;98822.39;1870636;76;22591;-59
2021/06/06 05:06:13;;;;;;;8.03;2.80;;;;;;;18.23;55.36;98825.77;1870624;76;22185;-63
2021/06/06 05:09:04;;;;;;;8.00;2.37;;;;;;;18.26;55.82;98829.22;1827846;78;21115;-61
2021/06/06 05:11:41;;;;;;;7.83;3.45;;;;;;;18.33;54.57;98834.27;1870468;76;22164;-60
2021/06/06 05:14:18;;;;;;;6.30;2.60;;;;;;;18.35;54.11;98826.41;1870580;76;22579;-60
2021/06/06 05:16:54;;;;;;;8.50;3.10;;;;;;;18.38;54.02;98825.03;1890022;76;22145;-58
2021/06/06 05:19:34;;;;;;;5.22;2.15;;;;;;;18.41;54.92;98828.87;1869797;76;22140;-62
2021/06/06 05:22:16;;;;;;;6.72;2.62;;;;;;;18.44;54.45;98827.48;1889873;76;22163;-61
2021/06/06 05:24:52;;;;;;;7.58;2.65;;;;;;;18.51;54.91;98822.98;1870486;76;22609;-63
2021/06/06 05:27:27;;;;;;;12.80;3.47;;;;;;;18.61;56.09;98821.88;1889928;76;22271;-62
2021/06/06 05:30:07;;;;;;;7.22;2.85;;;;;;;18.74;59.40;98823.29;1870663;76;22583;-64
2021/06/06 05:32:42;;;;;;;8.05;3.05;;;;;;;18.82;58.17;98831.83;1889877;76;22176;-60
2021/06/06 05:35:30;;;;;;;5.67;2.17;;;;;;;18.81;58.30;98828.81;1861104;77;21124;-62
2021/06/06 05:38:10;;;;;;;4.90;2.10;;;;;;;18.98;55.91;98823.59;1889964;76;22144;-58
2021/06/06 05:40:45;;;;;;;4.62;2.70;;;;;;;19.10;55.72;98827.22;1870590;76;22120;-61
2021/06/06 05:43:21;;;;;;;4.35;1.87;;;;;;;19.30;57.71;98825.39;1854221;76;28480;-61
2021/06/06 05:46:13;;;;;;;6.78;2.47;;;;;;;19.47;55.04;98829.72;1839081;77;21134;-61
2021/06/06 05:48:49;;;;;;;6.30;2.60;;;;;;;19.82;54.94;98825.73;1866161;76;22178;-61
2021/06/06 05:51:24;;;;;;;9.05;2.33;;;;;;;20.08;54.99;98824.53;1853492;76;20369;-62
2021/06/06 05:53:58;;;;;;;8.78;2.87;;;;;;;20.27;53.45;98827.89;1853861;76;22158;-63
2021/06/06 05:56:44;;;;;;;4.12;1.90;;;;;;;20.42;53.72;98831.35;1755877;81;21293;-60
2021/06/06 05:59:20;;;;;;;4.33;1.82;;;;;;;20.74;52.90;98826.44;1870442;76;22165;-63
2021/06/06 06:01:56;;;;;;;6.40;1.90;;;;;;;20.95;50.73;98831.42;1854506;76;28319;-63
2021/06/06 06:04:30;;;;;;;6.03;1.92;;;;;;;21.09;50.35;98824.84;1850785;77;22238;-64
2021/06/06 06:07:12;;;;;;;4.12;1.87;;;;;;;21.19;49.19;98826.24;1885735;76;22168;-65
2021/06/06 06:09:47;;;;;;;5.28;1.90;;;;;;;21.20;48.72;98830.60;1889906;76;20147;-64
2021/06/06 06:12:35;;;;;;;7.87;2.33;;;;;;;21.25;48.32;98836.55;1861120;77;21103;-63
2021/06/06 06:15:13;;;;;;;7.50;2.40;;;;;;;21.34;48.40;98836.67;1870669;76;22567;-64
2021/06/06 06:17:46;;;;;;;5.35;1.67;;;;;;;21.50;49.04;98831.33;1870812;76;22149;-68
2021/06/06 06:20:22;;;;;;;6.20;2.40;;;;;;;21.69;49.55;98834.14;1854571;76;28315;-63
2021/06/06 06:22:58;;;;;;;3.87;1.95;;;;;;;21.87;48.90;98833.92;1870430;76;22164;-63
2021/06/06 06:25:34;;;;;;;4.70;1.92;;;;;;;21.95;48.20;98834.95;1870418;76;20101;-62
2021/06/06 06:28:09;;;;;;;6.42;2.12;;;;;;;21.91;47.94;98829.42;1889931;76;22159;-62
2021/06/06 06:30:44;;;;;;;8.15;2.47;;;;;;;21.83;47.29;98828.36;1854642;76;28304;-62
2021/06/06 06:33:33;;;;;;;5.45;2.02;;;;;;;21.73;47.16;98835.75;1744859;81;21197;-63
2021/06/06 06:36:11;;;;;;;6.22;2.27;;;;;;;21.61;47.42;98830.94;1878906;76;22152;-64
2021/06/06 06:38:51;;;;;;;6.35;2.20;;;;;;;21.43;47.65;98834.62;1856028;76;22187;-63
2021/06/06 06:41:37;;;;;;;8.10;2.20;;;;;;;21.22;48.36;98830.95;1827560;77;21255;-64
2021/06/06 06:44:11;;;;;;;9.08;2.22;;;;;;;21.24;49.45;98820.37;1870710;76;22153;-63
2021/06/06 06:46:47;;;;;;;6.08;2.42;;;;;;;21.30;49.67;98824.12;1854543;76;27932;-64
2021/06/06 06:49:23;;;;;;;8.03;2.67;;;;;;;21.36;49.76;98829.14;1854543;76;27919;-63
2021/06/06 06:52:18;;;;;;;5.97;2.67;;;;;;;21.39;48.91;98825.13;1861851;76;22190;-64
2021/06/06 06:54:53;;;;;;;6.45;2.30;;;;;;;21.21;49.52;98828.36;1889905;76;22136;-65
2021/06/06 06:57:38;;;;;;;5.75;2.10;;;;;;;21.02;49.41;98826.38;1861401;77;21549;-64
2021/06/06 07:00:19;;;;;;;5.78;1.98;;;;;;;20.96;50.03;98821.34;1835137;77;22167;-64
2021/06/06 07:02:54;;;;;;;8.65;2.37;;;;;;;20.95;49.77;98818.77;1870486;76;22185;-63
2021/06/06 07:05:29;;;;;;;4.30;1.95;;;;;;;21.03;50.24;98824.14;1870629;76;22188;-63
2021/06/06 07:08:24;;;;;;;6.72;2.40;;;;;;;21.13;50.63;98823.84;1827480;78;21269;-61
2021/06/06 07:10:59;;;;;;;6.03;2.05;;;;;;;21.26;50.53;98818.56;1889896;76;22144;-63
2021/06/06 07:13:35;;;;;;;5.45;3.02;;;;;;;21.46;50.75;98812.19;1889887;76;22120;-64
2021/06/06 07:16:12;;;;;;;7.03;2.75;;;;;;;21.97;50.73;98809.48;1870442;76;22595;-63
2021/06/06 07:18:52;;;;;;;6.78;2.45;;;;;;;22.41;49.79;98807.77;1869886;76;22163;-62
2021/06/06 07:21:27;;;;;;;10.08;2.47;;;;;;;22.69;49.08;98812.77;1870598;76;22156;-65
2021/06/06 07:24:04;;;;;;;8.33;2.47;;;;;;;22.83;48.20;98805.64;1854518;76;27918;-63
2021/06/06 07:26:46;;;;;;;7.35;2.10;;;;;;;22.96;48.16;98806.83;1873872;76;28085;-64
2021/06/06 07:29:26;;;;;;;5.12;1.90;;;;;;;23.10;47.48;98806.30;1836981;77;22265;-63
2021/06/06 07:32:03;;;;;;;6.85;1.80;;;;;;;23.06;46.40;98812.60;1852881;76;22190;-63
2021/06/06 07:34:38;;;;;;;10.48;2.17;;;;;;;22.98;46.24;98809.45;1862936;76;22156;-65
2021/06/06 07:37:13;;;;;;;6.62;2.55;;;;;;;22.83;46.28;98810.05;1870751;76;22164;-62
2021/06/06 07:39:48;;;;;;;5.10;2.15;;;;;;;22.79;46.54;98813.72;1854440;76;27965;-63
2021/06/06 07:42:23;;;;;;;4.47;1.85;;;;;;;22.77;46.03;98817.75;1830123;76;28421;-62
2021/06/06 07:44:59;;;;;;;8.48;2.45;;;;;;;22.80;45.45;98816.77;1873830;76;27913;-66
2021/06/06 07:47:33;;;;;;;5.40;2.10;;;;;;;22.83;44.58;98819.27;1889553;76;22192;-64
2021/06/06 07:50:24;;;;;;;3.45;1.77;;;;;;;22.72;44.70;98826.29;1791712;80;21284;-64
2021/06/06 07:52:59;;;;;;;15.60;3.10;;;;;;;22.70;44.97;98825.02;1870622;76;22579;-60
2021/06/06 07:55:42;;;;;;;6.87;1.85;;;;;;;22.65;44.50;98824.35;1889751;76;22615;-63
2021/06/06 07:58:21;;;;;;;5.60;1.90;;;;;;;22.47;44.92;98822.47;1840543;76;28014;-70
2021/06/06 08:00:58;;;;;;;6.22;1.77;;;;;;;22.37;44.95;98826.38;1874916;76;22202;-63
2021/06/06 08:03:33;;;;;;;7.20;1.98;;;;;;;22.31;45.33;98828.33;1873870;76;27899;-63
2021/06/06 08:06:21;;;;;;;9.50;2.50;;;;;;;22.27;45.55;98831.98;1827367;78;21137;-61
2021/06/06 08:09:03;;;;;;;4.55;1.95;;;;;;;22.16;45.90;98831.52;1830924;77;22251;-63
2021/06/06 08:11:38;;;;;;;5.25;1.80;;;;;;;22.04;45.54;98831.98;1867216;76;22257;-63
2021/06/06 08:14:13;;;;;;;4.28;1.50;;;;;;;21.92;45.49;98831.12;1887829;76;22219;-63
2021/06/06 08:16:48;;;;;;;5.72;2.12;;;;;;;21.86;45.95;98830.44;1854279;76;28003;-61
2021/06/06 08:19:23;;;;;;;8.88;2.08;;;;;;;22.00;46.10;98830.38;1870645;76;22144;-64
2021/06/06 08:21:58;;;;;;;4.08;1.85;;;;;;;22.11;45.82;98829.53;1870603;76;22244;-63
2021/06/06 08:24:33;;;;;;;8.28;2.40;;;;;;;22.18;46.60;98842.81;1873810;76;38230;-63
2021/06/06 08:27:15;;;;;;;4.28;1.92;;;;;;;22.18;46.86;98828.35;1869767;76;22165;-61
2021/06/06 08:29:50;;;;;;;7.17;2.00;;;;;;;21.92;47.05;98837.69;1873979;76;27917;-62
2021/06/06 08:32:25;;;;;;;6.03;2.02;;;;;;;21.81;47.38;98840.27;1819357;77;28073;-62
2021/06/06 08:35:00;;;;;;;5.50;2.20;;;;;;;21.75;47.85;98839.16;1889923;76;22522;-63
2021/06/06 08:37:35;;;;;;;6.70;1.98;;;;;;;21.71;48.23;98836.72;1870610;76;22121;-63
2021/06/06 08:40:14;;;;;;;3.98;1.75;;;;;;;21.72;48.34;98835.80;1870614;76;22161;-61
2021/06/06 08:43:03;;;;;;;4.00;1.92;;;;;;;21.66;48.43;98837.73;1827836;78;21560;-63
2021/06/06 08:45:51;;;;;;;4.45;2.00;;;;;;;21.63;48.98;98834.37;1870540;76;22181;-63
2021/06/06 08:48:29;;;;;;;5.33;1.80;;;;;;;21.53;49.14;98831.68;1870808;76;20208;-64
2021/06/06 08:51:12;;;;;;;6.25;2.27;;;;;;;21.38;49.64;98835.23;1870625;76;22531;-63
2021/06/06 08:54:24;;;;;;;4.83;2.15;;;;;;;21.31;50.51;98835.47;1827722;78;21544;-63
2021/06/06 08:57:07;;;;;;;6.50;1.95;;;;;;;21.29;51.39;98828.95;1889926;76;22148;-63
2021/06/06 08:59:49;;;;;;;7.33;3.15;;;;;;;21.27;51.43;98833.42;1870451;76;22181;-62
2021/06/06 09:02:48;;;;;;;5.90;2.42;;;;;;;21.37;51.04;98826.94;1870636;76;22120;-63
2021/06/06 09:05:32;;;;;;;5.60;2.50;;;;;;;21.56;50.90;98825.00;1889928;76;22144;-63
2021/06/06 09:08:22;;;;;;;8.85;2.60;;;;;;;21.75;50.44;98823.86;1889858;76;22203;-63
2021/06/06 09:10:59;;;;;;;4.67;2.47;;;;;;;21.90;50.80;98816.72;1889959;76;22144;-63
2021/06/06 09:13:45;;;;;;;5.92;2.30;;;;;;;21.95;50.55;98826.59;1861307;77;21138;-64
2021/06/06 09:16:25;;;;;;;5.60;2.20;;;;;;;22.20;49.89;98814.73;1870593;76;22128;-63
2021/06/06 09:19:13;;;;;;;6.65;2.92;;;;;;;22.36;48.65;98806.24;1870631;76;22141;-62
2021/06/06 09:22:02;;;;;;;5.55;2.58;;;;;;;22.46;48.46;98812.84;1760324;81;21146;-63
2021/06/06 09:24:46;;;;;;;7.05;2.47;;;;;;;22.68;47.86;98811.06;1889933;76;22124;-62
2021/06/06 09:27:25;;;;;;;7.78;3.12;;;;;;;22.82;47.37;98796.48;1870510;76;22113;-63
2021/06/06 09:30:06;;;;;;;5.37;2.90;;;;;;;22.98;47.30;98797.59;1870577;76;22586;-62
2021/06/06 09:33:12;;;;;;;5.85;2.67;;;;;;;23.07;46.76;98803.77;1760276;81;21161;-63
2021/06/06 09:36:00;;;;;;;6.55;3.00;;;;;;;23.32;46.20;98802.25;1870716;76;22112;-62
2021/06/06 09:38:40;;;;;;;5.75;2.80;;;;;;;23.45;45.60;98801.25;1889864;76;22112;-65
2021/06/06 09:41:43;;;;;;;4.58;2.52;;;;;;;23.52;45.38;98803.17;1791592;80;21217;-63
2021/06/06 09:44:30;;;;;;;5.80;2.40;;;;;;;23.71;44.74;98799.23;1870606;76;22148;-63
2021/06/06 09:47:11;;;;;;;8.48;2.27;;;;;;;23.86;44.46;98799.03;1870577;76;22555;-63
2021/06/06 09:49:48;;;;;;;5.58;2.35;;;;;;;24.00;43.92;98801.43;1889982;76;22160;-64
2021/06/06 09:52:45;;;;;;;5.45;2.87;;;;;;;24.18;43.85;98802.81;1889940;76;22115;-63
2021/06/06 09:55:31;;;;;;;5.62;2.60;;;;;;;24.34;43.04;98798.52;1889890;76;22157;-63
2021/06/06 09:58:16;;;;;;;5.90;2.70;;;;;;;24.37;42.87;98800.99;1889973;76;22139;-63
2021/06/06 10:00:55;;;;;;;5.12;2.55;;;;;;;24.35;42.82;98804.20;1870675;76;22156;-63
2021/06/06 10:03:39;;;;;;;8.55;3.10;;;;;;;24.31;43.05;98801.77;1889889;76;22140;-62
2021/06/06 10:06:22;;;;;;;7.55;2.75;;;;;;;24.23;43.10;98800.34;1870636;76;22137;-63
2021/06/06 10:09:20;;;;;;;10.00;3.10;;;;;;;24.13;43.23;98795.59;1870614;76;22519;-64
2021/06/06 10:12:13;;;;;;;4.78;2.67;;;;;;;24.14;43.27;98799.92;1889933;76;22187;-63
2021/06/06 10:15:35;;;;;;;7.22;3.20;;;;;;;24.07;43.30;98797.17;1874121;75;22191;-64
2021/06/06 10:18:24;;;;;;;8.88;2.72;;;;;;;24.19;42.99;98793.50;1870634;76;22527;-62
2021/06/06 10:21:23;;;;;;;5.30;2.72;;;;;;;24.21;42.97;98789.02;1868503;76;22597;-63
2021/06/06 10:24:09;;;;;;;4.65;2.75;;;;;;;24.27;42.82;98786.54;1890095;76;22152;-62
2021/06/06 10:27:01;;;;;;;5.75;2.85;;;;;;;24.27;42.83;98787.86;1791442;80;21138;-64
2021/06/06 10:29:41;;;;;;;7.58;2.50;;;;;;;24.37;42.79;98778.58;1870673;76;22131;-66
2021/06/06 10:32:28;;;;;;;11.60;3.00;;;;;;;24.43;42.55;98782.25;1889737;76;22572;-65
2021/06/06 10:35:21;;;;;;;7.03;2.95;;;;;;;24.50;42.28;98781.97;1870507;76;22551;-62
2021/06/06 10:38:08;;;;;;;7.15;2.80;;;;;;;24.50;42.29;98775.38;1827700;77;21143;-64
2021/06/06 10:40:53;;;;;;;8.70;2.90;;;;;;;24.57;42.55;98779.43;1873935;76;38207;-62
2021/06/06 10:43:54;;;;;;;9.58;2.37;;;;;;;24.67;42.28;98770.97;1850563;76;22141;-61
2021/06/06 10:46:56;;;;;;;6.95;2.20;;;;;;;24.77;42.45;98768.73;1856619;76;22874;-64
2021/06/06 10:49:36;;;;;;;5.28;2.12;;;;;;;24.89;40.14;98772.08;1850269;76;22144;-63
2021/06/06 10:52:38;;;;;;;4.83;1.98;;;;;;;24.82;40.85;98768.04;1867009;76;22162;-64
2021/06/06 10:55:29;;;;;;;6.03;2.37;;;;;;;24.65;40.56;98765.38;1852949;76;22558;-63
2021/06/06 10:58:19;;;;;;;5.40;2.17;;;;;;;24.42;39.70;98767.80;1860996;76;20290;-63
2021/06/06 11:01:10;;;;;;;6.25;2.40;;;;;;;24.32;39.79;98771.34;1838715;77;21204;-64
2021/06/06 11:03:54;;;;;;;4.25;1.92;;;;;;;24.51;39.36;98762.59;1853545;76;22229;-63
2021/06/06 11:06:32;;;;;;;6.70;1.72;;;;;;;24.51;38.84;98762.12;1853021;76;22156;-64
2021/06/06 11:09:29;;;;;;;5.83;2.10;;;;;;;24.50;39.72;98752.52;1862307;76;22179;-63
2021/06/06 11:12:31;;;;;;;7.62;2.20;;;;;;;24.57;38.92;98745.98;1852700;76;22609;-65
2021/06/06 11:15:38;;;;;;;4.17;2.12;;;;;;;24.79;39.18;98748.41;1855673;76;22213;-64
2021/06/06 11:18:19;;;;;;;4.92;2.40;;;;;;;25.04;38.83;98748.48;1870614;76;22141;-64
2021/06/06 11:21:06;;;;;;;4.05;1.72;;;;;;;25.21;39.13;98743.18;1869811;76;22135;-64
2021/06/06 11:23:58;;;;;;;8.40;1.95;;;;;;;25.30;37.98;98737.90;1870674;76;22141;-64
2021/06/06 11:26:46;;;;;;;6.20;2.10;;;;;;;25.28;37.57;98737.13;1870506;76;22567;-64
2021/06/06 11:30:00;;;;;;;9.13;2.22;;;;;;;25.07;38.06;98738.60;1760712;81;21189;-65
2021/06/06 11:33:01;;;;;;;7.47;2.27;;;;;;;24.97;38.25;98733.88;1870715;76;22136;-63
2021/06/06 11:35:41;;;;;;;6.20;1.90;;;;;;;24.96;38.13;98734.80;1870627;76;22581;-62
2021/06/06 11:38:41;;;;;;;4.97;2.30;;;;;;;25.03;38.07;98727.80;1828013;78;21292;-64
2021/06/06 11:41:23;;;;;;;5.30;2.33;;;;;;;25.10;37.56;98727.87;1870601;76;22172;-64
2021/06/06 11:44:09;;;;;;;4.40;2.17;;;;;;;25.15;37.94;98721.03;1870552;76;22594;-62
2021/06/06 11:47:14;;;;;;;4.75;2.17;;;;;;;25.30;37.39;98718.09;1889902;76;22574;-64
2021/06/06 11:50:12;;;;;;;7.50;2.37;;;;;;;25.31;37.47;98707.42;1889994;76;22565;-64
2021/06/06 11:53:22;;;;;;;7.33;1.95;;;;;;;25.06;36.93;98705.66;1870591;76;22149;-64
2021/06/06 11:56:17;;;;;;;5.53;2.60;;;;;;;24.51;37.88;98709.83;1861009;76;22136;-65
2021/06/06 11:59:26;;;;;;;7.22;2.62;;;;;;;24.25;37.82;98714.11;1812911;78;21177;-63
2021/06/06 12:02:12;;;;;;;8.55;2.55;;;;;;;24.47;37.70;98706.03;1863283;76;22166;-64
2021/06/06 12:04:47;;;;;;;7.75;2.55;;;;;;;24.52;38.09;98704.93;1889775;76;22171;-66
2021/06/06 12:07:29;;;;;;;6.83;2.20;;;;;;;24.24;38.07;98696.56;1870631;76;22121;-64
2021/06/06 12:10:06;;;;;;;8.35;2.35;;;;;;;23.96;39.39;98700.16;1889863;76;22144;-65
2021/06/06 12:12:45;;;;;;;6.40;1.92;;;;;;;23.78;39.24;98693.98;1850641;76;22172;-64
2021/06/06 12:15:36;;;;;;;8.05;2.20;;;;;;;23.97;38.89;98686.91;1857653;75;22211;-62
2021/06/06 12:18:22;;;;;;;6.72;2.10;;;;;;;24.12;38.33;98692.35;1857388;76;22171;-62
2021/06/06 12:21:21;;;;;;;3.55;1.72;;;;;;;24.14;38.34;98686.55;1795347;80;21160;-63
2021/06/06 12:24:07;;;;;;;5.65;2.15;;;;;;;24.31;36.48;98681.30;1870643;76;22105;-60
2021/06/06 12:27:08;;;;;;;4.10;1.60;;;;;;;24.38;36.79;98687.14;1870341;76;22194;-61
2021/06/06 12:29:51;;;;;;;7.45;2.33;;;;;;;24.44;36.48;98678.43;1889891;76;22147;-59
2021/06/06 12:32:35;;;;;;;7.33;2.30;;;;;;;24.32;36.39;98686.95;1870535;76;22145;-63
2021/06/06 12:35:17;;;;;;;7.45;2.33;;;;;;;24.36;36.69;98688.52;1870341;76;22147;-62
2021/06/06 12:38:12;;;;;;;4.25;1.90;;;;;;;24.60;37.42;98682.97;1866660;76;22156;-65
2021/06/06 12:40:50;;;;;;;7.03;2.30;;;;;;;24.54;36.83;98680.18;1855993;76;22220;-65
2021/06/06 12:43:28;;;;;;;4.37;2.30;;;;;;;24.42;37.59;98675.02;1855820;76;22178;-65
2021/06/06 12:46:08;;;;;;;8.30;2.33;;;;;;;24.37;38.03;98675.70;1860294;76;22180;-61